Terminal Aerodrome Forecast
Issued by NWS

Home | Current Version | Previous Version | Graphics & Text | Print | Product List | Glossary On
Versions: 1 2 3 4 5 6 7 8 9 10 11 12 13
000
FTUS43 KTOP 032327
TAFFOE
TAF
KFOE 032327Z 0400/0424 04007KT P6SM FEW040
     FM040900 00000KT 4SM BR SKC
     FM041300 13006KT P6SM SKC=

USA.gov is the U.S. government's official web portal to all federal, state and local government web resources and services.